Ahoskie, NC

2:37 PM EDT on August 30, 2014 (GMT -0400)
Northeastern Regional | Change Station
CLOSE
Current Station
Airport
Location: Edenton,
Elevation: 20 ft
Nearby Weather Stations

Elev 20 ft 36.03 °N, 76.57 °W | Updated 22 minutes ago

Scattered Clouds
Scattered Clouds
85 °F
Feels Like 92 °F
N
6
Wind Variable Wind from ESE

Today
High -- | Low -- °F
--% Chance of Precip.
Yesterday
High -- | Low -- °F
Precip. -- in
6:37 AM 7:38 PM
Waxing Crescent, 23% visible
Pressure 30.18 in
Visibility 10.0 miles
Clouds Scattered Clouds 11000 ft
Heat Index 92 °F
Dew Point 73 °F
Humidity 67%
Rainfall 0.00 in
Snow Depth Not available.
UV 7 out of 12
Pollen 8.90 out of 12
Air Quality Not available.
Flu Activity Not available.
METAR KEDE 301815Z AUTO 11005KT 10SM SCT110 30/23 A3018 RMK AO2 T02960228

More Conditions Fewer Conditions

Pressure 30.18 in
Visibility 10.0 miles
Clouds Scattered Clouds 11000 ft
Heat Index 92 °F
Dew Point 73 °F
Humidity 67%
Rainfall 0.00 in
Snow Depth Not available.
UV 7 out of 12
Pollen 8.90 out of 12
Air Quality Not available.
Flu Activity Not available.
METAR KEDE 301815Z AUTO 11005KT 10SM SCT110 30/23 A3018 RMK AO2 T02960228

More Conditions Fewer Conditions

10-Day Weather Forecast

Almanac

Astronomy

Aug. 30, 2014 Rise Set
Actual Time 6:37 AM EDT 7:38 PM EDT
Civil Twilight 6:11 AM EDT 8:04 PM EDT
Nautical Twilight 5:40 AM EDT 8:36 PM EDT
Astronomical Twilight 5:07 AM EDT 9:08 PM EDT
Moon 11:13 AM EDT 10:21 PM EDT
Length of Visible Light 13h 53m
Length of Day
13h 00m
Tomorrow will be 2m 11s shorter.
Waxing Crescent, 23% of the Moon is Illuminated
Today
Waxing Crescent
Sep 2
First Quarter
Sep 8
Full
Sep 15
Last Quarter
Sep 24
New

Today's Extremes

State Highs State Lows

Community

WunderPhotos

Upload Photos

1,748,591 photos uploaded!

WunderBlogs® & News

Nearby

Snow Depth

Station Depth Elevation
No new snow has been reported.

Earthquake Activity

City Distance Mag. Time & Date
No recent earthquake activity has been reported nearby.
Minimum magnitude displayed is 2.5.

Coastal Water Temperatures

Place Temperature
Oregon Inlet Marina, NC 78.1 °F
Duck Pier, NC 78.1 °F
Hatteras, NC 81.0 °F
Money Point, VA 82.9 °F
Sewells Point, VA 78.1 °F
Chesapeake Bay Bridge Tunnel, VA 77.0 °F

Nearby Weather Stations